sensor_id;sensor_type;location;lat;lon;timestamp;pressure;altitude;pressure_sealevel;temperature;humidity
80164;BME280;70071;55.130;61.268;2023-12-20T00:01:55;98084.75;;;-0.19;50.43
80164;BME280;70071;55.130;61.268;2023-12-20T00:04:21;98096.81;;;-0.08;50.00
80164;BME280;70071;55.130;61.268;2023-12-20T00:06:47;98101.09;;;-0.16;50.17
80164;BME280;70071;55.130;61.268;2023-12-20T00:09:13;98088.19;;;-0.18;50.34
80164;BME280;70071;55.130;61.268;2023-12-20T00:11:39;98053.59;;;-0.40;49.99
80164;BME280;70071;55.130;61.268;2023-12-20T00:14:07;98044.72;;;-0.47;50.28
80164;BME280;70071;55.130;61.268;2023-12-20T00:16:33;98068.84;;;-0.25;50.04
80164;BME280;70071;55.130;61.268;2023-12-20T00:18:59;98064.88;;;-0.39;49.72
80164;BME280;70071;55.130;61.268;2023-12-20T00:21:25;98053.22;;;-0.55;50.11
80164;BME280;70071;55.130;61.268;2023-12-20T00:23:51;98062.22;;;-0.68;50.18
80164;BME280;70071;55.130;61.268;2023-12-20T00:26:17;98097.22;;;-0.32;50.16
80164;BME280;70071;55.130;61.268;2023-12-20T00:28:43;98068.28;;;-0.68;50.26
80164;BME280;70071;55.130;61.268;2023-12-20T00:31:09;98082.94;;;-0.67;50.47
80164;BME280;70071;55.130;61.268;2023-12-20T00:33:35;98053.03;;;-0.92;50.65
80164;BME280;70071;55.130;61.268;2023-12-20T00:36:01;98055.53;;;-0.71;50.29
80164;BME280;70071;55.130;61.268;2023-12-20T00:38:27;98057.72;;;-0.66;49.70
80164;BME280;70071;55.130;61.268;2023-12-20T00:40:53;98051.69;;;-0.57;49.45
80164;BME280;70071;55.130;61.268;2023-12-20T00:43:18;98051.00;;;-0.49;48.53
80164;BME280;70071;55.130;61.268;2023-12-20T00:45:44;98083.94;;;-0.29;48.71
80164;BME280;70071;55.130;61.268;2023-12-20T00:48:10;98048.81;;;-0.34;48.19
80164;BME280;70071;55.130;61.268;2023-12-20T00:50:36;98089.00;;;-0.47;48.42
80164;BME280;70071;55.130;61.268;2023-12-20T00:53:02;98060.91;;;-0.53;49.08
80164;BME280;70071;55.130;61.268;2023-12-20T00:55:28;98074.03;;;-0.35;48.57
80164;BME280;70071;55.130;61.268;2023-12-20T00:57:54;98076.91;;;-0.38;47.87
80164;BME280;70071;55.130;61.268;2023-12-20T01:00:20;98054.41;;;-0.68;47.84
80164;BME280;70071;55.130;61.268;2023-12-20T01:02:47;98072.13;;;-0.43;48.30
80164;BME280;70071;55.130;61.268;2023-12-20T01:05:15;98045.50;;;-0.27;48.34
80164;BME280;70071;55.130;61.268;2023-12-20T01:07:41;98044.81;;;-0.19;48.41
80164;BME280;70071;55.130;61.268;2023-12-20T01:10:07;98041.13;;;-0.36;47.87
80164;BME280;70071;55.130;61.268;2023-12-20T01:12:33;98026.16;;;-0.34;47.43
80164;BME280;70071;55.130;61.268;2023-12-20T01:14:59;98062.81;;;-0.26;48.03
80164;BME280;70071;55.130;61.268;2023-12-20T01:17:25;98014.53;;;-0.49;47.54
80164;BME280;70071;55.130;61.268;2023-12-20T01:19:51;98029.59;;;-0.43;47.09
80164;BME280;70071;55.130;61.268;2023-12-20T01:22:17;98014.13;;;-0.55;47.64
80164;BME280;70071;55.130;61.268;2023-12-20T01:24:43;98037.97;;;-0.30;47.38
80164;BME280;70071;55.130;61.268;2023-12-20T01:27:08;98053.31;;;-0.37;47.29
80164;BME280;70071;55.130;61.268;2023-12-20T01:29:34;98023.03;;;-0.47;47.57
80164;BME280;70071;55.130;61.268;2023-12-20T01:32:00;98048.94;;;-0.56;48.11
80164;BME280;70071;55.130;61.268;2023-12-20T01:34:26;98044.41;;;-0.54;47.80
80164;BME280;70071;55.130;61.268;2023-12-20T01:36:52;98015.88;;;-0.75;47.90
80164;BME280;70071;55.130;61.268;2023-12-20T01:39:18;98022.38;;;-0.59;48.23
80164;BME280;70071;55.130;61.268;2023-12-20T01:41:44;98010.97;;;-0.58;47.90
80164;BME280;70071;55.130;61.268;2023-12-20T01:44:10;98031.38;;;-0.34;47.79
80164;BME280;70071;55.130;61.268;2023-12-20T01:46:36;98027.97;;;-0.54;47.06
80164;BME280;70071;55.130;61.268;2023-12-20T01:49:03;98016.84;;;-0.46;47.51
80164;BME280;70071;55.130;61.268;2023-12-20T01:51:29;98007.94;;;-0.63;47.91
80164;BME280;70071;55.130;61.268;2023-12-20T01:53:56;98012.75;;;-0.88;47.96
80164;BME280;70071;55.130;61.268;2023-12-20T01:56:24;98001.91;;;-0.74;47.76
80164;BME280;70071;55.130;61.268;2023-12-20T01:58:50;97980.09;;;-1.02;48.16
80164;BME280;70071;55.130;61.268;2023-12-20T02:01:16;98012.47;;;-0.46;47.88
80164;BME280;70071;55.130;61.268;2023-12-20T02:03:44;98022.47;;;-0.41;47.87
80164;BME280;70071;55.130;61.268;2023-12-20T02:06:11;98009.19;;;-0.48;47.88
80164;BME280;70071;55.130;61.268;2023-12-20T02:08:38;98010.00;;;-0.77;47.78
80164;BME280;70071;55.130;61.268;2023-12-20T02:11:04;97973.53;;;-0.77;47.75
80164;BME280;70071;55.130;61.268;2023-12-20T02:13:31;97973.81;;;-0.99;48.00
80164;BME280;70071;55.130;61.268;2023-12-20T02:15:57;98004.66;;;-0.85;48.74
80164;BME280;70071;55.130;61.268;2023-12-20T02:18:24;97959.16;;;-0.91;48.27
80164;BME280;70071;55.130;61.268;2023-12-20T02:20:49;97965.88;;;-0.88;47.89
80164;BME280;70071;55.130;61.268;2023-12-20T02:23:15;98002.88;;;-0.65;48.25
80164;BME280;70071;55.130;61.268;2023-12-20T02:25:41;97960.50;;;-0.67;47.97
80164;BME280;70071;55.130;61.268;2023-12-20T02:28:07;97987.78;;;-0.61;47.62
80164;BME280;70071;55.130;61.268;2023-12-20T02:30:34;97955.56;;;-0.70;47.83
80164;BME280;70071;55.130;61.268;2023-12-20T02:33:01;97966.25;;;-0.63;47.44
80164;BME280;70071;55.130;61.268;2023-12-20T02:35:27;97989.69;;;-0.34;47.73
80164;BME280;70071;55.130;61.268;2023-12-20T02:37:53;97950.63;;;-0.63;47.62
80164;BME280;70071;55.130;61.268;2023-12-20T02:40:19;97980.91;;;-0.43;47.27
80164;BME280;70071;55.130;61.268;2023-12-20T02:42:45;97965.25;;;-0.33;47.90
80164;BME280;70071;55.130;61.268;2023-12-20T02:45:11;97962.09;;;-0.37;47.30
80164;BME280;70071;55.130;61.268;2023-12-20T02:47:37;97910.63;;;-0.82;47.34
80164;BME280;70071;55.130;61.268;2023-12-20T02:50:03;97935.84;;;-0.92;47.96
80164;BME280;70071;55.130;61.268;2023-12-20T02:52:31;97910.19;;;-0.87;47.82
80164;BME280;70071;55.130;61.268;2023-12-20T02:54:57;97901.56;;;-1.27;48.51
80164;BME280;70071;55.130;61.268;2023-12-20T02:57:23;97885.28;;;-1.09;48.12
80164;BME280;70071;55.130;61.268;2023-12-20T02:59:49;97918.94;;;-0.68;47.43
80164;BME280;70071;55.130;61.268;2023-12-20T03:02:15;97933.78;;;-0.59;47.80
80164;BME280;70071;55.130;61.268;2023-12-20T03:04:41;97955.44;;;-0.98;48.28
80164;BME280;70071;55.130;61.268;2023-12-20T03:07:07;97900.34;;;-1.42;48.89
80164;BME280;70071;55.130;61.268;2023-12-20T03:09:33;97891.59;;;-1.41;48.71
80164;BME280;70071;55.130;61.268;2023-12-20T03:11:59;97924.03;;;-1.35;49.37
80164;BME280;70071;55.130;61.268;2023-12-20T03:14:25;97905.38;;;-1.60;49.24
80164;BME280;70071;55.130;61.268;2023-12-20T03:16:51;97943.38;;;-0.89;48.71
80164;BME280;70071;55.130;61.268;2023-12-20T03:19:18;97897.47;;;-1.19;49.37
80164;BME280;70071;55.130;61.268;2023-12-20T03:21:47;97889.81;;;-1.21;48.90
80164;BME280;70071;55.130;61.268;2023-12-20T03:24:13;97891.16;;;-1.56;49.40
80164;BME280;70071;55.130;61.268;2023-12-20T03:26:39;97915.81;;;-1.40;49.40
80164;BME280;70071;55.130;61.268;2023-12-20T03:29:05;97886.06;;;-1.57;49.96
80164;BME280;70071;55.130;61.268;2023-12-20T03:31:30;97897.72;;;-1.32;49.89
80164;BME280;70071;55.130;61.268;2023-12-20T03:33:56;97878.91;;;-1.75;50.54
80164;BME280;70071;55.130;61.268;2023-12-20T03:36:22;97907.31;;;-1.03;49.23
80164;BME280;70071;55.130;61.268;2023-12-20T03:38:48;97893.09;;;-1.09;49.26
80164;BME280;70071;55.130;61.268;2023-12-20T03:41:14;97860.34;;;-1.12;49.47
80164;BME280;70071;55.130;61.268;2023-12-20T03:43:40;97901.44;;;-0.86;49.51
80164;BME280;70071;55.130;61.268;2023-12-20T03:46:08;97899.50;;;-0.74;49.38
80164;BME280;70071;55.130;61.268;2023-12-20T03:48:34;97882.06;;;-0.64;49.68
80164;BME280;70071;55.130;61.268;2023-12-20T03:51:00;97850.47;;;-1.18;50.19
80164;BME280;70071;55.130;61.268;2023-12-20T03:53:26;97889.66;;;-1.29;50.26
80164;BME280;70071;55.130;61.268;2023-12-20T03:55:52;97857.75;;;-1.12;49.95
80164;BME280;70071;55.130;61.268;2023-12-20T03:58:19;97835.28;;;-1.03;49.72
80164;BME280;70071;55.130;61.268;2023-12-20T04:00:45;97833.34;;;-1.01;50.61
80164;BME280;70071;55.130;61.268;2023-12-20T04:03:11;97806.50;;;-1.80;51.14
80164;BME280;70071;55.130;61.268;2023-12-20T04:05:40;97845.13;;;-1.55;52.15
80164;BME280;70071;55.130;61.268;2023-12-20T04:08:07;97843.25;;;-1.53;51.94
80164;BME280;70071;55.130;61.268;2023-12-20T04:10:33;97865.69;;;-1.42;52.68
80164;BME280;70071;55.130;61.268;2023-12-20T04:12:59;97819.81;;;-1.63;52.63
80164;BME280;70071;55.130;61.268;2023-12-20T04:15:25;97857.34;;;-1.17;52.23
80164;BME280;70071;55.130;61.268;2023-12-20T04:17:51;97870.75;;;-1.02;52.05
80164;BME280;70071;55.130;61.268;2023-12-20T04:20:17;97842.16;;;-1.21;51.38
80164;BME280;70071;55.130;61.268;2023-12-20T04:22:43;97841.72;;;-1.17;51.17
80164;BME280;70071;55.130;61.268;2023-12-20T04:25:09;97843.09;;;-1.22;51.95
80164;BME280;70071;55.130;61.268;2023-12-20T04:27:35;97835.28;;;-1.03;51.49
80164;BME280;70071;55.130;61.268;2023-12-20T04:30:01;97844.28;;;-1.66;52.09
80164;BME280;70071;55.130;61.268;2023-12-20T04:32:31;97842.81;;;-1.39;51.98
80164;BME280;70071;55.130;61.268;2023-12-20T04:34:57;97863.19;;;-1.73;52.87
80164;BME280;70071;55.130;61.268;2023-12-20T04:37:23;97861.44;;;-1.44;52.17
80164;BME280;70071;55.130;61.268;2023-12-20T04:39:50;97837.31;;;-1.26;53.12
80164;BME280;70071;55.130;61.268;2023-12-20T04:42:16;97841.28;;;-1.81;53.00
80164;BME280;70071;55.130;61.268;2023-12-20T04:44:43;97810.22;;;-1.53;53.40
80164;BME280;70071;55.130;61.268;2023-12-20T04:47:10;97804.31;;;-1.35;52.64
80164;BME280;70071;55.130;61.268;2023-12-20T04:49:36;97827.72;;;-1.94;53.65
80164;BME280;70071;55.130;61.268;2023-12-20T04:52:02;97851.59;;;-1.50;53.13
80164;BME280;70071;55.130;61.268;2023-12-20T04:54:28;97813.94;;;-1.65;52.84
80164;BME280;70071;55.130;61.268;2023-12-20T04:56:54;97818.44;;;-1.48;53.32
80164;BME280;70071;55.130;61.268;2023-12-20T04:59:20;97816.69;;;-1.47;53.25
80164;BME280;70071;55.130;61.268;2023-12-20T05:01:46;97762.84;;;-1.86;53.09
80164;BME280;70071;55.130;61.268;2023-12-20T05:04:11;97819.81;;;-1.24;52.36
80164;BME280;70071;55.130;61.268;2023-12-20T05:06:37;97787.06;;;-1.27;53.24
80164;BME280;70071;55.130;61.268;2023-12-20T05:09:05;97804.75;;;-1.69;53.51
80164;BME280;70071;55.130;61.268;2023-12-20T05:11:32;97784.50;;;-1.56;53.69
80164;BME280;70071;55.130;61.268;2023-12-20T05:13:58;97814.59;;;-1.63;53.94
80164;BME280;70071;55.130;61.268;2023-12-20T05:16:23;97781.19;;;-1.58;53.91
80164;BME280;70071;55.130;61.268;2023-12-20T05:18:49;97770.94;;;-1.79;54.16
80164;BME280;70071;55.130;61.268;2023-12-20T05:21:18;97785.66;;;-1.01;53.82
80164;BME280;70071;55.130;61.268;2023-12-20T05:23:44;97774.47;;;-1.51;53.48
80164;BME280;70071;55.130;61.268;2023-12-20T05:26:09;97805.00;;;-1.43;54.32
80164;BME280;70071;55.130;61.268;2023-12-20T05:28:35;97757.94;;;-1.69;53.76
80164;BME280;70071;55.130;61.268;2023-12-20T05:31:01;97772.44;;;-1.47;53.30
80164;BME280;70071;55.130;61.268;2023-12-20T05:33:27;97733.72;;;-1.89;53.90
80164;BME280;70071;55.130;61.268;2023-12-20T05:35:53;97765.03;;;-1.62;54.38
80164;BME280;70071;55.130;61.268;2023-12-20T05:38:19;97725.06;;;-1.41;53.27
80164;BME280;70071;55.130;61.268;2023-12-20T05:40:45;97765.97;;;-1.23;53.56
80164;BME280;70071;55.130;61.268;2023-12-20T05:43:11;97744.78;;;-1.48;52.71
80164;BME280;70071;55.130;61.268;2023-12-20T05:45:37;97738.06;;;-1.70;53.33
80164;BME280;70071;55.130;61.268;2023-12-20T05:48:03;97753.81;;;-1.62;54.72
80164;BME280;70071;55.130;61.268;2023-12-20T05:50:29;97733.28;;;-1.46;54.42
80164;BME280;70071;55.130;61.268;2023-12-20T05:52:55;97730.13;;;-1.69;54.74
80164;BME280;70071;55.130;61.268;2023-12-20T05:55:21;97708.78;;;-1.53;54.44
80164;BME280;70071;55.130;61.268;2023-12-20T05:57:47;97768.00;;;-1.08;54.00
80164;BME280;70071;55.130;61.268;2023-12-20T06:00:14;97729.69;;;-1.35;54.25
80164;BME280;70071;55.130;61.268;2023-12-20T06:02:41;97747.91;;;-1.35;53.84
80164;BME280;70071;55.130;61.268;2023-12-20T06:05:07;97735.44;;;-1.31;54.11
80164;BME280;70071;55.130;61.268;2023-12-20T06:07:34;97716.13;;;-1.29;53.91
80164;BME280;70071;55.130;61.268;2023-12-20T06:10:00;97772.88;;;-0.95;52.78
80164;BME280;70071;55.130;61.268;2023-12-20T06:12:26;97736.28;;;-0.83;53.04
80164;BME280;70071;55.130;61.268;2023-12-20T06:14:54;97754.75;;;-0.77;52.31
80164;BME280;70071;55.130;61.268;2023-12-20T06:17:20;97704.31;;;-0.85;52.95
80164;BME280;70071;55.130;61.268;2023-12-20T06:19:46;97734.84;;;-0.68;52.16
80164;BME280;70071;55.130;61.268;2023-12-20T06:22:15;97756.75;;;-0.98;53.14
80164;BME280;70071;55.130;61.268;2023-12-20T06:24:41;97753.66;;;-0.46;52.37
80164;BME280;70071;55.130;61.268;2023-12-20T06:27:07;97725.06;;;-0.10;51.55
80164;BME280;70071;55.130;61.268;2023-12-20T06:29:33;97717.06;;;0.27;50.22
80164;BME280;70071;55.130;61.268;2023-12-20T06:32:01;97703.28;;;0.17;49.81
80164;BME280;70071;55.130;61.268;2023-12-20T06:34:27;97663.41;;;0.25;50.50
80164;BME280;70071;55.130;61.268;2023-12-20T06:36:53;97710.13;;;0.36;49.71
80164;BME280;70071;55.130;61.268;2023-12-20T06:39:19;97694.97;;;0.84;49.75
80164;BME280;70071;55.130;61.268;2023-12-20T06:41:45;97707.44;;;0.98;49.41
80164;BME280;70071;55.130;61.268;2023-12-20T06:44:11;97711.22;;;0.51;48.97
80164;BME280;70071;55.130;61.268;2023-12-20T06:46:37;97711.78;;;0.01;50.17
80164;BME280;70071;55.130;61.268;2023-12-20T06:49:03;97731.84;;;0.37;49.98
80164;BME280;70071;55.130;61.268;2023-12-20T06:51:29;97731.75;;;0.46;50.42
80164;BME280;70071;55.130;61.268;2023-12-20T06:53:56;97741.50;;;0.88;50.54
80164;BME280;70071;55.130;61.268;2023-12-20T06:56:22;97731.16;;;0.16;53.09
80164;BME280;70071;55.130;61.268;2023-12-20T06:58:48;97712.38;;;0.31;53.93
80164;BME280;70071;55.130;61.268;2023-12-20T07:01:15;97695.34;;;0.45;52.83
80164;BME280;70071;55.130;61.268;2023-12-20T07:03:41;97724.66;;;0.39;53.34
80164;BME280;70071;55.130;61.268;2023-12-20T07:06:07;97697.31;;;0.69;52.73
80164;BME280;70071;55.130;61.268;2023-12-20T07:08:33;97731.97;;;0.79;52.83
80164;BME280;70071;55.130;61.268;2023-12-20T07:10:59;97716.63;;;0.76;53.96
80164;BME280;70071;55.130;61.268;2023-12-20T07:13:25;97716.63;;;0.76;54.01
80164;BME280;70071;55.130;61.268;2023-12-20T07:15:51;97704.66;;;1.34;52.08
80164;BME280;70071;55.130;61.268;2023-12-20T07:18:17;97660.81;;;0.51;53.35
80164;BME280;70071;55.130;61.268;2023-12-20T07:20:43;97633.56;;;0.80;53.92
80164;BME280;70071;55.130;61.268;2023-12-20T07:23:09;97672.53;;;1.08;53.96
80164;BME280;70071;55.130;61.268;2023-12-20T07:25:35;97652.16;;;1.11;53.14
80164;BME280;70071;55.130;61.268;2023-12-20T07:28:01;97669.75;;;1.52;52.96
80164;BME280;70071;55.130;61.268;2023-12-20T07:30:28;97613.22;;;0.57;53.57
80164;BME280;70071;55.130;61.268;2023-12-20T07:32:53;97674.97;;;1.52;53.13
80164;BME280;70071;55.130;61.268;2023-12-20T07:35:19;97609.50;;;1.02;52.78
80164;BME280;70071;55.130;61.268;2023-12-20T07:37:45;97674.16;;;1.00;54.41
80164;BME280;70071;55.130;61.268;2023-12-20T07:40:12;97654.16;;;1.17;53.73
80164;BME280;70071;55.130;61.268;2023-12-20T07:42:38;97621.06;;;0.92;54.64
80164;BME280;70071;55.130;61.268;2023-12-20T07:45:04;97656.88;;;1.08;55.11
80164;BME280;70071;55.130;61.268;2023-12-20T07:47:32;97650.13;;;0.62;56.47
80164;BME280;70071;55.130;61.268;2023-12-20T07:49:58;97603.69;;;0.48;56.46
80164;BME280;70071;55.130;61.268;2023-12-20T07:52:26;97620.34;;;0.81;55.47
80164;BME280;70071;55.130;61.268;2023-12-20T07:54:52;97622.88;;;0.99;55.67
80164;BME280;70071;55.130;61.268;2023-12-20T07:57:18;97618.38;;;1.18;55.76
80164;BME280;70071;55.130;61.268;2023-12-20T07:59:44;97618.56;;;1.24;56.55
80164;BME280;70071;55.130;61.268;2023-12-20T08:02:10;97593.22;;;0.40;57.64
80164;BME280;70071;55.130;61.268;2023-12-20T08:04:36;97620.41;;;0.63;57.67
80164;BME280;70071;55.130;61.268;2023-12-20T08:07:02;97595.47;;;1.03;56.35
80164;BME280;70071;55.130;61.268;2023-12-20T08:09:29;97607.41;;;0.37;58.21
80164;BME280;70071;55.130;61.268;2023-12-20T08:11:55;97625.41;;;0.83;57.80
80164;BME280;70071;55.130;61.268;2023-12-20T08:14:21;97620.47;;;0.45;59.54
80164;BME280;70071;55.130;61.268;2023-12-20T08:16:47;97606.28;;;0.74;58.72
80164;BME280;70071;55.130;61.268;2023-12-20T08:19:13;97586.53;;;0.37;59.94
80164;BME280;70071;55.130;61.268;2023-12-20T08:21:39;97586.97;;;1.01;58.43
80164;BME280;70071;55.130;61.268;2023-12-20T08:24:06;97568.22;;;0.63;59.09
80164;BME280;70071;55.130;61.268;2023-12-20T08:26:32;97597.84;;;0.46;60.13
80164;BME280;70071;55.130;61.268;2023-12-20T08:28:58;97603.63;;;1.00;58.82
80164;BME280;70071;55.130;61.268;2023-12-20T08:31:24;97582.34;;;0.52;59.56
80164;BME280;70071;55.130;61.268;2023-12-20T08:33:51;97576.25;;;0.70;59.12
80164;BME280;70071;55.130;61.268;2023-12-20T08:36:19;97603.78;;;0.64;59.88
80164;BME280;70071;55.130;61.268;2023-12-20T08:38:47;97574.03;;;0.49;60.36
80164;BME280;70071;55.130;61.268;2023-12-20T08:41:13;97571.06;;;0.44;59.94
80164;BME280;70071;55.130;61.268;2023-12-20T08:43:38;97606.13;;;0.41;61.66
80164;BME280;70071;55.130;61.268;2023-12-20T08:46:08;97577.88;;;0.71;60.48
80164;BME280;70071;55.130;61.268;2023-12-20T08:48:35;97551.75;;;0.71;59.43
80164;BME280;70071;55.130;61.268;2023-12-20T08:51:01;97592.50;;;0.90;60.18
80164;BME280;70071;55.130;61.268;2023-12-20T08:53:27;97601.19;;;0.99;59.59
80164;BME280;70071;55.130;61.268;2023-12-20T08:55:53;97608.56;;;1.12;59.52
80164;BME280;70071;55.130;61.268;2023-12-20T08:58:19;97582.13;;;1.15;59.52
80164;BME280;70071;55.130;61.268;2023-12-20T09:00:45;97604.25;;;0.94;60.07
80164;BME280;70071;55.130;61.268;2023-12-20T09:03:11;97563.78;;;0.56;60.49
80164;BME280;70071;55.130;61.268;2023-12-20T09:05:37;97575.63;;;0.42;61.68
80164;BME280;70071;55.130;61.268;2023-12-20T09:08:03;97556.81;;;0.64;61.07
80164;BME280;70071;55.130;61.268;2023-12-20T09:10:29;97548.16;;;0.29;61.84
80164;BME280;70071;55.130;61.268;2023-12-20T09:12:55;97577.84;;;0.97;60.72
80164;BME280;70071;55.130;61.268;2023-12-20T09:15:26;97568.03;;;1.08;59.89
80164;BME280;70071;55.130;61.268;2023-12-20T09:17:53;97545.56;;;0.64;61.03
80164;BME280;70071;55.130;61.268;2023-12-20T09:20:19;97537.28;;;0.77;60.22
80164;BME280;70071;55.130;61.268;2023-12-20T09:22:45;97555.53;;;1.44;58.37
80164;BME280;70071;55.130;61.268;2023-12-20T09:25:12;97565.19;;;1.68;57.66
80164;BME280;70071;55.130;61.268;2023-12-20T09:27:39;97549.00;;;1.32;58.72
80164;BME280;70071;55.130;61.268;2023-12-20T09:30:05;97544.25;;;1.19;58.76
80164;BME280;70071;55.130;61.268;2023-12-20T09:32:33;97550.59;;;1.16;58.97
80164;BME280;70071;55.130;61.268;2023-12-20T09:35:00;97540.25;;;0.90;59.62
80164;BME280;70071;55.130;61.268;2023-12-20T09:37:27;97548.69;;;0.76;60.03
80164;BME280;70071;55.130;61.268;2023-12-20T09:39:54;97562.03;;;1.15;59.70
80164;BME280;70071;55.130;61.268;2023-12-20T09:45:09;97517.22;;;0.85;58.67
80164;BME280;70071;55.130;61.268;2023-12-20T09:47:36;97554.72;;;1.27;59.01
80164;BME280;70071;55.130;61.268;2023-12-20T09:50:02;97572.88;;;1.37;58.49
80164;BME280;70071;55.130;61.268;2023-12-20T09:52:31;97533.31;;;1.32;57.81
80164;BME280;70071;55.130;61.268;2023-12-20T09:54:58;97555.94;;;0.90;58.94
80164;BME280;70071;55.130;61.268;2023-12-20T09:57:24;97546.16;;;0.58;59.80
80164;BME280;70071;55.130;61.268;2023-12-20T09:59:50;97506.75;;;0.34;59.62
80164;BME280;70071;55.130;61.268;2023-12-20T10:02:19;97520.13;;;0.05;60.65
80164;BME280;70071;55.130;61.268;2023-12-20T10:04:47;97533.78;;;0.25;61.05
80164;BME280;70071;55.130;61.268;2023-12-20T10:07:13;97489.81;;;0.39;60.63
80164;BME280;70071;55.130;61.268;2023-12-20T10:09:40;97520.41;;;0.28;59.94
80164;BME280;70071;55.130;61.268;2023-12-20T10:12:07;97507.00;;;-0.11;60.67
80164;BME280;70071;55.130;61.268;2023-12-20T10:14:34;97518.84;;;0.44;60.39
80164;BME280;70071;55.130;61.268;2023-12-20T10:17:04;97546.59;;;0.45;59.99
80164;BME280;70071;55.130;61.268;2023-12-20T10:19:31;97521.44;;;0.70;59.15
80164;BME280;70071;55.130;61.268;2023-12-20T10:22:00;97542.75;;;0.57;59.78
80164;BME280;70071;55.130;61.268;2023-12-20T10:24:30;97539.34;;;0.65;59.28
80164;BME280;70071;55.130;61.268;2023-12-20T10:27:07;97520.78;;;0.33;59.10
80164;BME280;70071;55.130;61.268;2023-12-20T10:29:37;97520.25;;;0.30;58.89
80164;BME280;70071;55.130;61.268;2023-12-20T10:32:26;97492.34;;;0.22;59.42
80164;BME280;70071;55.130;61.268;2023-12-20T10:34:54;97487.59;;;0.52;59.06
80164;BME280;70071;55.130;61.268;2023-12-20T10:37:21;97529.19;;;0.96;58.08
80164;BME280;70071;55.130;61.268;2023-12-20T10:39:52;97495.59;;;0.50;57.83
80164;BME280;70071;55.130;61.268;2023-12-20T10:42:28;97501.84;;;0.66;57.56
80164;BME280;70071;55.130;61.268;2023-12-20T10:44:55;97509.25;;;0.44;58.68
80164;BME280;70071;55.130;61.268;2023-12-20T10:47:22;97497.94;;;0.78;57.40
80164;BME280;70071;55.130;61.268;2023-12-20T10:49:52;97527.47;;;0.79;57.53
80164;BME280;70071;55.130;61.268;2023-12-20T10:52:18;97513.63;;;0.78;58.27
80164;BME280;70071;55.130;61.268;2023-12-20T10:54:46;97506.66;;;1.03;57.11
80164;BME280;70071;55.130;61.268;2023-12-20T10:57:12;97507.84;;;0.58;57.97
80164;BME280;70071;55.130;61.268;2023-12-20T10:59:39;97494.47;;;0.61;58.36
80164;BME280;70071;55.130;61.268;2023-12-20T11:02:05;97473.63;;;0.27;58.48
80164;BME280;70071;55.130;61.268;2023-12-20T11:04:41;97446.47;;;0.46;58.16
80164;BME280;70071;55.130;61.268;2023-12-20T11:07:21;97464.19;;;0.34;58.48
80164;BME280;70071;55.130;61.268;2023-12-20T11:10:15;97485.31;;;0.57;58.16
80164;BME280;70071;55.130;61.268;2023-12-20T11:12:58;97482.31;;;0.44;57.36
80164;BME280;70071;55.130;61.268;2023-12-20T11:15:29;97447.69;;;0.93;56.85
80164;BME280;70071;55.130;61.268;2023-12-20T11:17:56;97505.78;;;0.86;56.84
80164;BME280;70071;55.130;61.268;2023-12-20T11:20:22;97501.94;;;1.15;56.84
80164;BME280;70071;55.130;61.268;2023-12-20T11:22:53;97482.13;;;0.88;56.49
80164;BME280;70071;55.130;61.268;2023-12-20T11:25:19;97419.41;;;0.55;56.85
80164;BME280;70071;55.130;61.268;2023-12-20T11:28:11;97500.81;;;1.10;56.34
80164;BME280;70071;55.130;61.268;2023-12-20T11:30:54;97494.94;;;1.24;56.01
80164;BME280;70071;55.130;61.268;2023-12-20T11:33:25;97480.56;;;1.36;55.17
80164;BME280;70071;55.130;61.268;2023-12-20T11:35:52;97490.28;;;0.77;55.98
80164;BME280;70071;55.130;61.268;2023-12-20T11:38:20;97459.25;;;0.65;56.75
80164;BME280;70071;55.130;61.268;2023-12-20T11:40:50;97485.97;;;0.59;56.96
80164;BME280;70071;55.130;61.268;2023-12-20T11:46:05;97461.81;;;0.57;56.56
80164;BME280;70071;55.130;61.268;2023-12-20T11:48:36;97499.91;;;0.76;56.73
80164;BME280;70071;55.130;61.268;2023-12-20T11:51:08;97495.03;;;0.81;56.39
80164;BME280;70071;55.130;61.268;2023-12-20T11:53:34;97494.84;;;0.75;56.97
80164;BME280;70071;55.130;61.268;2023-12-20T11:56:00;97458.78;;;0.78;56.51
80164;BME280;70071;55.130;61.268;2023-12-20T11:58:28;97474.53;;;1.11;55.81
80164;BME280;70071;55.130;61.268;2023-12-20T12:00:55;97459.00;;;0.42;57.14
80164;BME280;70071;55.130;61.268;2023-12-20T12:03:21;97447.91;;;0.40;57.42
80164;BME280;70071;55.130;61.268;2023-12-20T12:05:47;97476.53;;;0.66;56.65
80164;BME280;70071;55.130;61.268;2023-12-20T12:08:14;97474.28;;;0.29;58.07
80164;BME280;70071;55.130;61.268;2023-12-20T12:10:40;97404.75;;;0.03;57.44
80164;BME280;70071;55.130;61.268;2023-12-20T12:13:06;97443.34;;;0.42;57.07
80164;BME280;70071;55.130;61.268;2023-12-20T12:15:32;97443.91;;;0.20;58.03
80164;BME280;70071;55.130;61.268;2023-12-20T12:17:58;97448.13;;;0.63;56.87
80164;BME280;70071;55.130;61.268;2023-12-20T12:20:25;97460.78;;;0.33;57.89
80164;BME280;70071;55.130;61.268;2023-12-20T12:23:22;97480.13;;;0.65;56.95
80164;BME280;70071;55.130;61.268;2023-12-20T12:25:49;97460.00;;;0.41;57.52
80164;BME280;70071;55.130;61.268;2023-12-20T12:28:15;97462.16;;;0.54;57.09
80164;BME280;70071;55.130;61.268;2023-12-20T12:30:42;97459.28;;;0.31;57.57
80164;BME280;70071;55.130;61.268;2023-12-20T12:33:08;97461.91;;;0.31;57.83
80164;BME280;70071;55.130;61.268;2023-12-20T12:35:34;97469.63;;;0.49;57.50
80164;BME280;70071;55.130;61.268;2023-12-20T12:38:00;97438.81;;;0.52;57.61
80164;BME280;70071;55.130;61.268;2023-12-20T12:40:28;97441.53;;;0.34;57.17
80164;BME280;70071;55.130;61.268;2023-12-20T12:42:55;97459.56;;;0.20;58.13
80164;BME280;70071;55.130;61.268;2023-12-20T12:45:21;97461.03;;;-0.12;58.85
80164;BME280;70071;55.130;61.268;2023-12-20T12:47:47;97453.84;;;0.16;58.31
80164;BME280;70071;55.130;61.268;2023-12-20T12:50:13;97427.94;;;0.23;57.65
80164;BME280;70071;55.130;61.268;2023-12-20T12:52:39;97431.34;;;0.15;58.62
80164;BME280;70071;55.130;61.268;2023-12-20T12:55:05;97422.16;;;0.03;58.21
80164;BME280;70071;55.130;61.268;2023-12-20T12:57:32;97435.81;;;0.31;57.66
80164;BME280;70071;55.130;61.268;2023-12-20T12:59:58;97431.94;;;0.43;57.47